createdAt,value
2022-11-01T00:02:01.130Z,100253.78
2022-11-01T00:04:27.476Z,100258.31
2022-11-01T00:06:53.861Z,100255.06
2022-11-01T00:09:20.185Z,100255.38
2022-11-01T00:11:46.837Z,100260.34
2022-11-01T00:14:15.123Z,100253.28
2022-11-01T00:16:41.841Z,100250.38
2022-11-01T00:19:08.753Z,100250.09
2022-11-01T00:21:35.468Z,100245.59
2022-11-01T00:24:01.814Z,100254.41
2022-11-01T00:26:28.177Z,100253.13
2022-11-01T00:28:54.559Z,100248.00
2022-11-01T00:31:21.580Z,100244.63
2022-11-01T00:33:48.221Z,100253.13
2022-11-01T00:36:15.073Z,100246.06
2022-11-01T00:38:41.533Z,100243.84
2022-11-01T00:41:08.404Z,100242.22
2022-11-01T00:43:36.023Z,100227.47
2022-11-01T00:46:03.570Z,100231.00
2022-11-01T00:48:30.224Z,100225.03
2022-11-01T00:50:56.528Z,100229.53
2022-11-01T00:53:22.984Z,100218.47
2022-11-01T00:55:49.294Z,100221.53
2022-11-01T00:58:15.637Z,100218.81
2022-11-01T01:00:42.012Z,100217.97
2022-11-01T01:03:08.524Z,100211.91
2022-11-01T01:05:35.552Z,100207.25
2022-11-01T01:08:02.556Z,100209.78
2022-11-01T01:10:29.235Z,100199.69
2022-11-01T01:12:55.602Z,100188.31
2022-11-01T01:15:21.934Z,100202.91
2022-11-01T01:17:48.382Z,100190.88
2022-11-01T01:20:14.720Z,100189.28
2022-11-01T01:22:41.139Z,100195.41
2022-11-01T01:25:07.924Z,100183.34
2022-11-01T01:27:34.303Z,100190.25
2022-11-01T01:30:00.615Z,100180.00
2022-11-01T01:32:26.972Z,100175.34
2022-11-01T01:34:53.299Z,100180.63
2022-11-01T01:37:20.148Z,100168.28
2022-11-01T01:39:46.668Z,100162.03
2022-11-01T01:42:33.053Z,100165.72
2022-11-01T01:44:59.301Z,100156.41
2022-11-01T01:47:34.197Z,100166.66
2022-11-01T01:50:09.045Z,100172.59
2022-11-01T01:52:44.069Z,100168.28
2022-11-01T01:55:12.490Z,100170.69
2022-11-01T01:57:40.848Z,100176.63
2022-11-01T02:00:08.336Z,100170.88
2022-11-01T02:02:34.918Z,100162.69
2022-11-01T02:05:08.539Z,100147.44
2022-11-01T02:07:34.893Z,100148.56
2022-11-01T02:10:01.405Z,100153.53
2022-11-01T02:12:35.272Z,100147.59
2022-11-01T02:15:03.085Z,100159.13
2022-11-01T02:18:08.722Z,100155.16
2022-11-01T02:20:53.148Z,100138.94
2022-11-01T02:23:42.312Z,100135.44
2022-11-01T02:26:14.562Z,100129.00
2022-11-01T02:29:05.642Z,100112.47
2022-11-01T02:32:17.967Z,100108.31
2022-11-01T02:34:46.759Z,100110.38
2022-11-01T02:37:28.117Z,100108.78
2022-11-01T02:40:01.237Z,100110.69
2022-11-01T02:42:32.533Z,100116.31
2022-11-01T02:45:08.957Z,100111.97
2022-11-01T02:47:38.497Z,100109.59
2022-11-01T02:50:09.405Z,100101.72
2022-11-01T02:52:40.148Z,100103.50
2022-11-01T02:55:18.966Z,100120.31
2022-11-01T02:57:46.421Z,100115.19
2022-11-01T03:00:25.039Z,100114.53
2022-11-01T03:03:20.707Z,100113.75
2022-11-01T03:06:05.201Z,100110.06
2022-11-01T03:08:42.565Z,100102.53
2022-11-01T03:11:19.509Z,100109.25
2022-11-01T03:14:09.965Z,100114.84
2022-11-01T03:16:48.599Z,100117.91
2022-11-01T03:19:51.549Z,100113.41
2022-11-01T03:22:30.957Z,100113.59
2022-11-01T03:25:03.013Z,100109.72
2022-11-01T03:27:37.881Z,100108.31
2022-11-01T03:30:09.411Z,100118.06
2022-11-01T03:32:48.364Z,100125.16
2022-11-01T03:35:38.600Z,100123.38
2022-11-01T03:38:10.738Z,100119.53
2022-11-01T03:40:41.464Z,100108.16
2022-11-01T03:43:11.893Z,100114.88
2022-11-01T03:45:39.592Z,100124.81
2022-11-01T03:48:06.534Z,100125.63
2022-11-01T03:50:34.043Z,100114.56
2022-11-01T03:53:00.628Z,100126.09
2022-11-01T03:55:27.026Z,100125.75
2022-11-01T03:57:56.369Z,100121.94
2022-11-01T04:00:31.463Z,100124.34
2022-11-01T04:02:59.134Z,100117.44
2022-11-01T04:05:27.857Z,100127.53
2022-11-01T04:07:54.352Z,100128.34
2022-11-01T04:10:22.267Z,100135.84
2022-11-01T04:12:49.820Z,100132.84
2022-11-01T04:15:17.857Z,100133.16
2022-11-01T04:17:44.172Z,100133.34
2022-11-01T04:20:10.665Z,100135.22
2022-11-01T04:22:39.345Z,100137.16
2022-11-01T04:25:05.744Z,100141.34
2022-11-01T04:27:32.058Z,100144.06
2022-11-01T04:29:58.349Z,100142.47
2022-11-01T04:32:24.632Z,100134.91
2022-11-01T04:34:50.957Z,100139.56
2022-11-01T04:37:17.249Z,100139.72
2022-11-01T04:39:43.557Z,100142.59
2022-11-01T04:42:09.872Z,100129.13
2022-11-01T04:44:36.181Z,100134.44
2022-11-01T04:47:02.548Z,100128.00
2022-11-01T04:49:28.833Z,100135.88
2022-11-01T04:51:55.146Z,100142.09
2022-11-01T04:54:21.466Z,100144.06
2022-11-01T04:56:47.757Z,100139.59
2022-11-01T04:59:14.091Z,100142.00
2022-11-01T05:01:40.525Z,100139.09
2022-11-01T05:04:06.967Z,100138.78
2022-11-01T05:06:33.285Z,100147.91
2022-11-01T05:08:59.673Z,100145.34
2022-11-01T05:11:26.079Z,100137.78
2022-11-01T05:13:52.477Z,100145.97
2022-11-01T05:16:20.112Z,100144.38
2022-11-01T05:18:47.546Z,100146.78
2022-11-01T05:21:13.922Z,100148.41
2022-11-01T05:23:40.230Z,100149.53
2022-11-01T05:26:06.742Z,100145.50
2022-11-01T05:28:33.238Z,100141.69
2022-11-01T05:30:59.613Z,100153.22
2022-11-01T05:33:26.033Z,100153.38
2022-11-01T05:35:52.404Z,100160.09
2022-11-01T05:38:18.705Z,100162.69
2022-11-01T05:40:45.097Z,100159.00
2022-11-01T05:43:11.436Z,100154.31
2022-11-01T05:45:37.786Z,100152.22
2022-11-01T05:48:04.691Z,100155.28
2022-11-01T05:50:31.346Z,100159.28
2022-11-01T05:53:08.206Z,100163.44
2022-11-01T05:55:35.371Z,100160.38
2022-11-01T05:58:02.331Z,100166.00
2022-11-01T06:00:28.669Z,100172.69
2022-11-01T06:02:58.106Z,100184.38
2022-11-01T06:05:25.456Z,100172.16
2022-11-01T06:07:51.783Z,100174.53
2022-11-01T06:10:18.429Z,100172.81
2022-11-01T06:12:44.765Z,100183.09
2022-11-01T06:15:11.617Z,100183.22
2022-11-01T06:17:37.938Z,100192.69
2022-11-01T06:20:05.533Z,100200.72
2022-11-01T06:22:34.236Z,100194.28
2022-11-01T06:25:00.553Z,100192.03
2022-11-01T06:27:28.109Z,100193.94
2022-11-01T06:29:54.427Z,100200.84
2022-11-01T06:32:20.785Z,100197.59
2022-11-01T06:34:47.080Z,100202.22
2022-11-01T06:37:13.391Z,100209.94
2022-11-01T06:39:39.777Z,100216.38
2022-11-01T06:42:06.157Z,100225.00
2022-11-01T06:44:32.489Z,100220.81
2022-11-01T06:46:58.821Z,100225.50
2022-11-01T06:49:25.118Z,100228.03
2022-11-01T06:51:51.489Z,100231.53
2022-11-01T06:54:17.795Z,100233.28
2022-11-01T06:56:47.340Z,100241.25
2022-11-01T06:59:14.136Z,100248.34
2022-11-01T07:01:40.599Z,100242.41
2022-11-01T07:04:07.049Z,100245.94
2022-11-01T07:06:33.429Z,100245.44
2022-11-01T07:09:00.021Z,100247.28
2022-11-01T07:11:31.254Z,100257.44
2022-11-01T07:13:58.128Z,100260.72
2022-11-01T07:16:25.206Z,100265.22
2022-11-01T07:18:52.137Z,100264.53
2022-11-01T07:21:18.551Z,100261.41
2022-11-01T07:23:44.927Z,100269.47
2022-11-01T07:26:11.237Z,100274.56
2022-11-01T07:28:37.623Z,100284.44
2022-11-01T07:31:04.050Z,100289.66
2022-11-01T07:33:30.408Z,100293.78
2022-11-01T07:35:56.797Z,100292.31
2022-11-01T07:38:23.198Z,100297.44
2022-11-01T07:40:49.849Z,100303.06
2022-11-01T07:43:17.848Z,100306.13
2022-11-01T07:45:44.173Z,100307.50
2022-11-01T07:48:13.482Z,100298.44
2022-11-01T07:50:41.440Z,100308.06
2022-11-01T07:53:10.301Z,100306.59
2022-11-01T07:55:37.232Z,100300.13
2022-11-01T07:58:04.937Z,100304.44
2022-11-01T08:00:31.856Z,100303.56
2022-11-01T08:03:08.932Z,100315.66
2022-11-01T08:05:35.884Z,100309.84
2022-11-01T08:08:03.069Z,100306.22
2022-11-01T08:10:29.720Z,100308.66
2022-11-01T08:13:04.707Z,100314.38
2022-11-01T08:15:31.198Z,100321.59
2022-11-01T08:17:58.354Z,100325.81
2022-11-01T08:20:25.931Z,100328.34
2022-11-01T08:22:53.334Z,100336.09
2022-11-01T08:25:20.504Z,100344.31
2022-11-01T08:27:47.522Z,100347.31
2022-11-01T08:30:15.772Z,100351.63
2022-11-01T08:32:42.115Z,100358.72
2022-11-01T08:35:09.201Z,100360.97
2022-11-01T08:37:35.505Z,100370.25
2022-11-01T08:40:01.942Z,100373.81
2022-11-01T08:42:28.245Z,100387.31
2022-11-01T08:44:54.559Z,100392.06
2022-11-01T08:47:20.889Z,100391.97
2022-11-01T08:49:47.216Z,100383.22
2022-11-01T08:52:13.532Z,100396.56
2022-11-01T08:54:39.857Z,100404.56
2022-11-01T08:57:06.160Z,100404.00
2022-11-01T08:59:32.486Z,100418.72
2022-11-01T09:01:58.887Z,100418.03
2022-11-01T09:04:25.351Z,100414.28
2022-11-01T09:06:51.671Z,100427.66
2022-11-01T09:09:18.071Z,100426.66
2022-11-01T09:11:44.417Z,100431.66
2022-11-01T09:14:10.717Z,100432.38
2022-11-01T09:16:37.040Z,100441.78
2022-11-01T09:19:03.443Z,100457.88
2022-11-01T09:21:31.889Z,100449.75
2022-11-01T09:23:58.608Z,100443.38
2022-11-01T09:26:24.958Z,100445.91
2022-11-01T09:28:51.289Z,100439.22
2022-11-01T09:31:21.536Z,100446.44
2022-11-01T09:33:48.301Z,100458.25
2022-11-01T09:36:14.629Z,100457.53
2022-11-01T09:38:40.925Z,100460.53
2022-11-01T09:41:24.300Z,100459.16
2022-11-01T09:43:52.826Z,100463.41
2022-11-01T09:48:58.836Z,100486.94
2022-11-01T09:51:25.743Z,100488.13
2022-11-01T09:53:59.321Z,100497.56
2022-11-01T09:56:30.510Z,100495.22
2022-11-01T09:59:28.954Z,100492.41
2022-11-01T10:02:10.854Z,100500.56
2022-11-01T10:05:05.266Z,100507.44
2022-11-01T10:07:49.840Z,100510.78
2022-11-01T10:10:40.131Z,100516.03
2022-11-01T10:13:37.026Z,100526.31
2022-11-01T10:16:33.413Z,100507.75
2022-11-01T10:19:05.727Z,100517.53
2022-11-01T10:21:39.048Z,100522.97
2022-11-01T10:24:06.914Z,100526.34
2022-11-01T10:26:33.844Z,100528.94
2022-11-01T10:29:29.713Z,100524.75
2022-11-01T10:31:56.686Z,100542.38
2022-11-01T10:34:26.445Z,100546.41
2022-11-01T10:36:57.401Z,100547.75
2022-11-01T10:40:03.015Z,100544.53
2022-11-01T10:42:30.230Z,100546.41
2022-11-01T10:45:01.237Z,100566.59
2022-11-01T10:47:28.026Z,100562.03
2022-11-01T10:50:06.036Z,100563.31
2022-11-01T10:52:46.001Z,100560.72
2022-11-01T10:55:15.806Z,100570.47
2022-11-01T10:57:47.200Z,100563.88
2022-11-01T11:00:17.378Z,100563.63
2022-11-01T11:02:48.551Z,100567.00
2022-11-01T11:05:15.713Z,100563.94
2022-11-01T11:07:43.783Z,100567.34
2022-11-01T11:10:23.979Z,100574.53
2022-11-01T11:12:55.481Z,100581.50
2022-11-01T11:15:43.833Z,100574.88
2022-11-01T11:18:19.472Z,100577.88
2022-11-01T11:20:50.293Z,100573.34
2022-11-01T11:23:19.561Z,100569.66
2022-11-01T11:25:45.923Z,100563.13
2022-11-01T11:28:23.627Z,100560.47
2022-11-01T11:30:50.123Z,100573.63
2022-11-01T11:33:18.157Z,100574.41
2022-11-01T11:35:53.378Z,100564.06
2022-11-01T11:38:40.272Z,100573.00
2022-11-01T11:41:09.251Z,100576.63
2022-11-01T11:43:35.561Z,100566.97
2022-11-01T11:46:06.052Z,100576.94
2022-11-01T11:48:32.713Z,100572.34
2022-11-01T11:51:04.802Z,100566.91
2022-11-01T11:53:31.564Z,100572.66
2022-11-01T11:56:01.093Z,100569.69
2022-11-01T11:58:43.198Z,100557.56
2022-11-01T12:01:14.893Z,100566.84
2022-11-01T12:03:53.139Z,100565.47
2022-11-01T12:06:21.933Z,100570.50
2022-11-01T12:08:51.288Z,100560.41
2022-11-01T12:11:17.891Z,100563.41
2022-11-01T12:13:59.350Z,100568.06
2022-11-01T12:16:25.807Z,100576.00
2022-11-01T12:19:00.661Z,100574.06
2022-11-01T12:21:33.363Z,100580.38
2022-11-01T12:24:23.144Z,100572.88
2022-11-01T12:26:51.927Z,100570.34
2022-11-01T12:29:32.573Z,100579.19
2022-11-01T12:32:12.234Z,100578.69
2022-11-01T12:34:42.672Z,100580.09
2022-11-01T12:37:33.796Z,100579.69
2022-11-01T12:40:36.661Z,100584.13
2022-11-01T12:43:16.234Z,100583.50
2022-11-01T12:45:47.758Z,100578.63
2022-11-01T12:48:21.888Z,100576.63
2022-11-01T12:50:55.717Z,100584.13
2022-11-01T12:53:28.217Z,100585.19
2022-11-01T12:55:57.865Z,100591.97
2022-11-01T12:58:25.015Z,100589.00
2022-11-01T13:01:07.689Z,100599.06
2022-11-01T13:03:59.283Z,100598.94
2022-11-01T13:06:36.947Z,100600.16
2022-11-01T13:09:38.776Z,100603.72
2022-11-01T13:12:31.012Z,100607.94
2022-11-01T13:14:57.256Z,100593.56
2022-11-01T13:17:46.378Z,100594.13
2022-11-01T13:20:40.596Z,100599.63
2022-11-01T13:23:36.848Z,100599.75
2022-11-01T13:26:18.601Z,100611.94
2022-11-01T13:29:02.773Z,100615.22
2022-11-01T13:31:44.435Z,100616.06
2022-11-01T13:34:44.813Z,100612.47
2022-11-01T13:37:20.911Z,100613.59
2022-11-01T13:39:50.160Z,100607.72
2022-11-01T13:42:20.705Z,100608.16
2022-11-01T13:44:52.056Z,100609.66
2022-11-01T13:47:27.341Z,100613.28
2022-11-01T13:50:18.383Z,100608.50
2022-11-01T13:53:04.488Z,100613.44
2022-11-01T13:55:38.808Z,100622.16
2022-11-01T13:58:06.057Z,100622.63
2022-11-01T14:00:44.282Z,100619.28
2022-11-01T14:03:19.333Z,100620.88
2022-11-01T14:05:46.238Z,100616.63
2022-11-01T14:08:14.439Z,100615.16
2022-11-01T14:10:49.211Z,100615.66
2022-11-01T14:13:17.611Z,100614.59
2022-11-01T14:15:55.829Z,100609.25
2022-11-01T14:18:22.231Z,100613.59
2022-11-01T14:20:55.818Z,100611.91
2022-11-01T14:23:28.263Z,100615.94
2022-11-01T14:26:19.312Z,100616.81
2022-11-01T14:28:47.911Z,100619.75
2022-11-01T14:31:17.297Z,100619.44
2022-11-01T14:33:44.817Z,100617.56
2022-11-01T14:36:13.019Z,100608.03
2022-11-01T14:38:53.654Z,100614.63
2022-11-01T14:41:22.454Z,100616.91
2022-11-01T14:43:52.373Z,100615.03
2022-11-01T14:46:25.126Z,100614.72
2022-11-01T14:48:59.109Z,100611.03
2022-11-01T14:51:34.977Z,100614.75
2022-11-01T14:54:36.907Z,100617.50
2022-11-01T14:57:17.981Z,100626.41
2022-11-01T14:59:44.317Z,100617.72
2022-11-01T15:02:11.269Z,100614.69
2022-11-01T15:04:43.009Z,100616.28
2022-11-01T15:07:26.220Z,100617.13
2022-11-01T15:09:57.420Z,100624.03
2022-11-01T15:12:26.205Z,100626.44
2022-11-01T15:14:55.251Z,100622.13
2022-11-01T15:17:24.286Z,100630.34
2022-11-01T15:19:51.882Z,100623.09
2022-11-01T15:22:20.906Z,100634.53
2022-11-01T15:24:51.261Z,100625.03
2022-11-01T15:27:20.890Z,100633.88
2022-11-01T15:29:48.379Z,100640.94
2022-11-01T15:32:28.438Z,100640.94
2022-11-01T15:34:57.191Z,100644.66
2022-11-01T15:37:26.594Z,100645.75
2022-11-01T15:39:52.950Z,100636.25
2022-11-01T15:42:22.278Z,100639.56
2022-11-01T15:44:48.587Z,100636.50
2022-11-01T15:47:19.839Z,100637.91
2022-11-01T15:50:02.902Z,100638.38
2022-11-01T15:52:31.903Z,100649.03
2022-11-01T15:55:05.088Z,100639.19
2022-11-01T15:57:36.714Z,100646.66
2022-11-01T16:00:05.411Z,100639.06
2022-11-01T16:02:45.039Z,100649.38
2022-11-01T16:05:16.169Z,100643.69
2022-11-01T16:07:43.869Z,100647.66
2022-11-01T16:10:25.932Z,100648.16
2022-11-01T16:12:54.479Z,100643.50
2022-11-01T16:15:25.357Z,100649.19
2022-11-01T16:17:54.405Z,100651.22
2022-11-01T16:20:30.390Z,100646.50
2022-11-01T16:22:59.476Z,100653.91
2022-11-01T16:25:28.230Z,100655.31
2022-11-01T16:27:57.877Z,100656.13
2022-11-01T16:30:35.966Z,100655.34
2022-11-01T16:33:23.663Z,100656.75
2022-11-01T16:35:52.222Z,100667.78
2022-11-01T16:38:33.587Z,100669.69
2022-11-01T16:41:01.729Z,100664.44
2022-11-01T16:43:31.016Z,100676.94
2022-11-01T16:45:58.863Z,100677.44
2022-11-01T16:48:28.101Z,100678.84
2022-11-01T16:50:56.370Z,100676.75
2022-11-01T16:53:25.642Z,100674.34
2022-11-01T16:56:05.920Z,100668.88
2022-11-01T16:58:47.375Z,100676.13
2022-11-01T17:01:23.558Z,100669.88
2022-11-01T17:03:50.177Z,100674.63
2022-11-01T17:06:16.741Z,100675.69
2022-11-01T17:08:43.060Z,100673.28
2022-11-01T17:11:09.427Z,100681.31
2022-11-01T17:13:36.549Z,100681.44
2022-11-01T17:16:04.567Z,100676.41
2022-11-01T17:18:36.198Z,100679.66
2022-11-01T17:21:06.682Z,100684.78
2022-11-01T17:23:34.148Z,100678.59
2022-11-01T17:26:02.483Z,100686.75
2022-11-01T17:28:28.806Z,100688.56
2022-11-01T17:30:55.314Z,100685.16
2022-11-01T17:33:22.109Z,100690.69
2022-11-01T17:35:48.765Z,100687.25
2022-11-01T17:38:30.068Z,100690.56
2022-11-01T17:40:56.911Z,100693.19
2022-11-01T17:43:23.409Z,100688.66
2022-11-01T17:45:50.577Z,100689.06
2022-11-01T17:48:17.826Z,100688.34
2022-11-01T17:50:44.581Z,100693.69
2022-11-01T17:53:13.384Z,100694.38
2022-11-01T17:55:40.417Z,100693.97
2022-11-01T17:58:07.496Z,100699.28
2022-11-01T18:00:33.880Z,100694.13
2022-11-01T18:03:00.213Z,100699.03
2022-11-01T18:05:26.637Z,100702.94
2022-11-01T18:07:53.250Z,100701.56
2022-11-01T18:10:21.288Z,100698.41
2022-11-01T18:12:57.167Z,100705.75
2022-11-01T18:15:38.071Z,100712.97
2022-11-01T18:18:33.660Z,100714.06
2022-11-01T18:21:25.843Z,100702.16
2022-11-01T18:23:55.777Z,100705.00
2022-11-01T18:26:25.765Z,100710.28
2022-11-01T18:28:59.924Z,100711.88
2022-11-01T18:31:34.815Z,100708.50
2022-11-01T18:34:10.739Z,100711.81
2022-11-01T18:36:47.336Z,100715.38
2022-11-01T18:39:26.014Z,100711.97
2022-11-01T18:41:52.430Z,100717.91
2022-11-01T18:44:18.764Z,100714.09
2022-11-01T18:46:56.431Z,100719.88
2022-11-01T18:49:26.570Z,100726.25
2022-11-01T18:51:53.608Z,100730.97
2022-11-01T18:54:25.493Z,100726.50
2022-11-01T18:56:57.719Z,100725.31
2022-11-01T18:59:32.459Z,100729.00
2022-11-01T19:02:11.129Z,100723.34
2022-11-01T19:04:39.913Z,100733.50
2022-11-01T19:07:13.532Z,100734.19
2022-11-01T19:09:41.324Z,100732.91
2022-11-01T19:12:17.228Z,100735.03
2022-11-01T19:14:46.497Z,100733.44
2022-11-01T19:17:24.180Z,100725.56
2022-11-01T19:19:52.472Z,100732.63
2022-11-01T19:22:33.027Z,100738.28
2022-11-01T19:25:01.401Z,100744.94
2022-11-01T19:27:28.630Z,100741.41
2022-11-01T19:29:58.111Z,100744.78
2022-11-01T19:32:25.983Z,100743.00
2022-11-01T19:34:53.792Z,100743.00
2022-11-01T19:37:31.825Z,100743.78
2022-11-01T19:40:01.347Z,100744.06
2022-11-01T19:42:30.846Z,100736.25
2022-11-01T19:44:58.630Z,100734.31
2022-11-01T19:47:35.509Z,100731.41
2022-11-01T19:50:01.989Z,100739.22
2022-11-01T19:52:32.621Z,100731.38
2022-11-01T19:54:58.961Z,100743.06
2022-11-01T19:57:31.587Z,100754.94
2022-11-01T20:00:14.929Z,100751.50
2022-11-01T20:02:41.500Z,100753.53
2022-11-01T20:05:23.037Z,100758.03
2022-11-01T20:07:50.264Z,100754.31
2022-11-01T20:10:17.673Z,100754.91
2022-11-01T20:12:44.954Z,100739.88
2022-11-01T20:15:11.435Z,100759.22
2022-11-01T20:17:37.849Z,100755.06
2022-11-01T20:20:04.460Z,100754.31
2022-11-01T20:22:30.799Z,100754.47
2022-11-01T20:24:57.236Z,100749.81
2022-11-01T20:27:23.597Z,100757.38
2022-11-01T20:29:50.003Z,100761.84
2022-11-01T20:32:16.422Z,100759.72
2022-11-01T20:34:42.815Z,100764.22
2022-11-01T20:37:27.543Z,100762.63
2022-11-01T20:39:54.747Z,100758.38
2022-11-01T20:42:21.092Z,100761.59
2022-11-01T20:44:47.401Z,100763.34
2022-11-01T20:47:13.748Z,100760.56
2022-11-01T20:49:40.544Z,100761.09
2022-11-01T20:52:33.636Z,100766.38
2022-11-01T20:54:53.257Z,100760.06
2022-11-01T20:57:27.497Z,100763.44
2022-11-01T20:59:54.736Z,100765.72
2022-11-01T21:02:21.172Z,100754.25
2022-11-01T21:04:54.993Z,100762.47
2022-11-01T21:07:21.369Z,100760.88
2022-11-01T21:09:47.780Z,100765.25
2022-11-01T21:12:32.219Z,100752.25
2022-11-01T21:15:02.310Z,100760.41
2022-11-01T21:17:29.003Z,100754.19
2022-11-01T21:19:55.389Z,100762.97
2022-11-01T21:22:21.806Z,100756.75
2022-11-01T21:24:49.491Z,100760.69
2022-11-01T21:27:41.874Z,100757.53
2022-11-01T21:30:19.639Z,100758.38
2022-11-01T21:32:46.579Z,100759.41
2022-11-01T21:35:38.714Z,100751.97
2022-11-01T21:38:33.547Z,100747.34
2022-11-01T21:41:00.389Z,100741.75
2022-11-01T21:43:33.196Z,100737.50
2022-11-01T21:45:59.499Z,100740.44
2022-11-01T21:48:29.126Z,100739.84
2022-11-01T21:50:56.268Z,100737.56
2022-11-01T21:53:22.632Z,100732.34
2022-11-01T21:55:49.062Z,100735.38
2022-11-01T21:58:15.375Z,100739.34
2022-11-01T22:00:41.750Z,100739.72
2022-11-01T22:03:08.079Z,100728.69
2022-11-01T22:05:34.411Z,100730.63
2022-11-01T22:08:00.714Z,100737.56
2022-11-01T22:10:27.049Z,100740.44
2022-11-01T22:12:53.504Z,100750.81
2022-11-01T22:15:19.832Z,100740.81
2022-11-01T22:17:46.239Z,100738.84
2022-11-01T22:20:12.667Z,100736.78
2022-11-01T22:22:38.993Z,100732.88
2022-11-01T22:25:05.803Z,100733.53
2022-11-01T22:27:32.104Z,100735.16
2022-11-01T22:29:58.463Z,100723.25
2022-11-01T22:32:24.818Z,100718.34
2022-11-01T22:34:51.671Z,100722.44
2022-11-01T22:37:18.009Z,100719.94
2022-11-01T22:39:46.955Z,100720.25
2022-11-01T22:42:15.789Z,100724.47
2022-11-01T22:44:46.084Z,100722.22
2022-11-01T22:47:27.944Z,100725.06
2022-11-01T22:49:57.042Z,100723.03
2022-11-01T22:52:26.052Z,100727.06
2022-11-01T22:55:02.268Z,100720.63
2022-11-01T22:57:32.840Z,100713.66
2022-11-01T23:00:02.195Z,100711.94
2022-11-01T23:02:29.559Z,100715.50
2022-11-01T23:05:08.337Z,100710.13
2022-11-01T23:07:35.773Z,100713.78
2022-11-01T23:10:19.958Z,100711.19
2022-11-01T23:12:46.469Z,100710.78
2022-11-01T23:15:30.575Z,100712.38
2022-11-01T23:18:15.507Z,100712.53
2022-11-01T23:20:43.236Z,100706.22
2022-11-01T23:23:17.863Z,100703.16
2022-11-01T23:25:44.510Z,100691.38
2022-11-01T23:28:12.241Z,100699.69
2022-11-01T23:30:39.504Z,100692.28
2022-11-01T23:33:11.554Z,100689.84
2022-11-01T23:35:37.864Z,100693.97
2022-11-01T23:38:15.235Z,100680.88
2022-11-01T23:40:41.772Z,100689.13
2022-11-01T23:43:20.650Z,100676.41
2022-11-01T23:45:47.357Z,100680.38
2022-11-01T23:48:13.723Z,100677.94
2022-11-01T23:50:40.041Z,100677.22
2022-11-01T23:53:12.088Z,100680.94
2022-11-01T23:55:40.953Z,100674.97
2022-11-01T23:58:11.729Z,100671.50
